sensor_id;sensor_type;location;lat;lon;timestamp;pressure;altitude;pressure_sealevel;temperature;humidity
54236;BME280;40151;43.606;1.472;2023-11-22T00:00:09;99807.25;;;18.95;62.10
54236;BME280;40151;43.606;1.472;2023-11-22T00:02:35;99807.25;;;18.95;61.93
54236;BME280;40151;43.606;1.472;2023-11-22T00:05:01;99815.25;;;18.93;62.25
54236;BME280;40151;43.606;1.472;2023-11-22T00:07:26;99802.97;;;18.92;62.31
54236;BME280;40151;43.606;1.472;2023-11-22T00:09:55;99817.00;;;18.94;61.95
54236;BME280;40151;43.606;1.472;2023-11-22T00:12:21;99817.88;;;18.93;62.16
54236;BME280;40151;43.606;1.472;2023-11-22T00:14:47;99819.81;;;18.89;62.11
54236;BME280;40151;43.606;1.472;2023-11-22T00:17:12;99819.81;;;18.89;62.15
54236;BME280;40151;43.606;1.472;2023-11-22T00:19:38;99813.69;;;18.89;62.29
54236;BME280;40151;43.606;1.472;2023-11-22T00:22:04;99822.53;;;18.88;62.30
54236;BME280;40151;43.606;1.472;2023-11-22T00:24:37;99807.53;;;18.88;62.00
54236;BME280;40151;43.606;1.472;2023-11-22T00:27:02;99813.81;;;18.86;62.45
54236;BME280;40151;43.606;1.472;2023-11-22T00:29:28;99823.56;;;18.85;62.18
54236;BME280;40151;43.606;1.472;2023-11-22T00:31:53;99821.09;;;18.81;62.37
54236;BME280;40151;43.606;1.472;2023-11-22T00:34:19;99814.88;;;18.82;62.35
54236;BME280;40151;43.606;1.472;2023-11-22T00:36:44;99808.69;;;18.83;62.32
54236;BME280;40151;43.606;1.472;2023-11-22T00:39:09;99810.41;;;18.84;62.21
54236;BME280;40151;43.606;1.472;2023-11-22T00:41:38;99820.28;;;18.80;62.22
54236;BME280;40151;43.606;1.472;2023-11-22T00:44:04;99816.81;;;18.78;62.37
54236;BME280;40151;43.606;1.472;2023-11-22T00:46:31;99818.53;;;18.79;62.07
54236;BME280;40151;43.606;1.472;2023-11-22T00:48:56;99823.97;;;18.76;62.27
54236;BME280;40151;43.606;1.472;2023-11-22T00:51:22;99817.69;;;18.78;62.08
54236;BME280;40151;43.606;1.472;2023-11-22T00:53:47;99823.03;;;18.77;62.29
54236;BME280;40151;43.606;1.472;2023-11-22T00:56:13;99828.25;;;18.78;61.98
54236;BME280;40151;43.606;1.472;2023-11-22T00:58:38;99819.56;;;18.76;62.22
54236;BME280;40151;43.606;1.472;2023-11-22T01:01:04;99829.38;;;18.73;62.13
54236;BME280;40151;43.606;1.472;2023-11-22T01:03:30;99824.97;;;18.73;62.26
54236;BME280;40151;43.606;1.472;2023-11-22T01:05:55;99830.25;;;18.73;62.23
54236;BME280;40151;43.606;1.472;2023-11-22T01:08:21;99835.53;;;18.73;62.28
54236;BME280;40151;43.606;1.472;2023-11-22T01:10:47;99841.13;;;18.67;62.56
54236;BME280;40151;43.606;1.472;2023-11-22T01:13:12;99844.47;;;18.71;62.14
54236;BME280;40151;43.606;1.472;2023-11-22T01:15:40;99844.41;;;18.72;62.23
54236;BME280;40151;43.606;1.472;2023-11-22T01:18:05;99853.13;;;18.74;62.17
54236;BME280;40151;43.606;1.472;2023-11-22T01:20:30;99859.47;;;18.70;62.35
54236;BME280;40151;43.606;1.472;2023-11-22T01:22:56;99858.56;;;18.71;62.02
54236;BME280;40151;43.606;1.472;2023-11-22T01:25:21;99860.53;;;18.66;62.29
54236;BME280;40151;43.606;1.472;2023-11-22T01:27:47;99865.91;;;18.64;62.41
54236;BME280;40151;43.606;1.472;2023-11-22T01:30:12;99867.59;;;18.65;62.33
54236;BME280;40151;43.606;1.472;2023-11-22T01:32:38;99873.81;;;18.64;62.37
54236;BME280;40151;43.606;1.472;2023-11-22T01:35:04;99874.69;;;18.65;62.25
54236;BME280;40151;43.606;1.472;2023-11-22T01:37:31;99870.31;;;18.64;62.23
54236;BME280;40151;43.606;1.472;2023-11-22T01:39:57;99876.69;;;18.60;62.41
54236;BME280;40151;43.606;1.472;2023-11-22T01:42:23;99876.53;;;18.63;62.33
54236;BME280;40151;43.606;1.472;2023-11-22T01:44:49;99880.09;;;18.62;62.39
54236;BME280;40151;43.606;1.472;2023-11-22T01:47:15;99882.75;;;18.62;62.45
54236;BME280;40151;43.606;1.472;2023-11-22T01:49:40;99879.31;;;18.60;62.45
54236;BME280;40151;43.606;1.472;2023-11-22T01:52:06;99874.09;;;18.58;62.54
54236;BME280;40151;43.606;1.472;2023-11-22T01:54:32;99876.75;;;18.58;62.69
54236;BME280;40151;43.606;1.472;2023-11-22T01:56:58;99875.09;;;18.56;62.37
54236;BME280;40151;43.606;1.472;2023-11-22T01:59:25;99880.25;;;18.59;62.22
54236;BME280;40151;43.606;1.472;2023-11-22T02:01:51;99866.38;;;18.54;62.57
54236;BME280;40151;43.606;1.472;2023-11-22T02:04:18;99879.50;;;18.55;62.55
54236;BME280;40151;43.606;1.472;2023-11-22T02:06:43;99871.66;;;18.54;62.51
54236;BME280;40151;43.606;1.472;2023-11-22T02:09:09;99887.38;;;18.57;62.48
54236;BME280;40151;43.606;1.472;2023-11-22T02:11:39;99889.25;;;18.55;62.51
54236;BME280;40151;43.606;1.472;2023-11-22T02:14:04;99888.38;;;18.54;62.30
54236;BME280;40151;43.606;1.472;2023-11-22T02:16:32;99892.66;;;18.57;62.36
54236;BME280;40151;43.606;1.472;2023-11-22T02:18:57;99889.25;;;18.55;62.28
54236;BME280;40151;43.606;1.472;2023-11-22T02:21:23;99887.53;;;18.54;62.58
54236;BME280;40151;43.606;1.472;2023-11-22T02:23:48;99887.53;;;18.54;62.20
54236;BME280;40151;43.606;1.472;2023-11-22T02:26:14;99886.72;;;18.51;62.55
54236;BME280;40151;43.606;1.472;2023-11-22T02:28:43;99887.66;;;18.50;62.26
54236;BME280;40151;43.606;1.472;2023-11-22T02:31:08;99880.53;;;18.52;62.53
54236;BME280;40151;43.606;1.472;2023-11-22T02:33:34;99874.44;;;18.50;62.37
54236;BME280;40151;43.606;1.472;2023-11-22T02:36:01;99870.06;;;18.49;62.34
54236;BME280;40151;43.606;1.472;2023-11-22T02:38:27;99872.78;;;18.48;62.39
54236;BME280;40151;43.606;1.472;2023-11-22T02:40:53;99872.84;;;18.46;62.60
54236;BME280;40151;43.606;1.472;2023-11-22T02:43:19;99863.19;;;18.45;62.34
54236;BME280;40151;43.606;1.472;2023-11-22T02:45:44;99860.66;;;18.44;62.37
54236;BME280;40151;43.606;1.472;2023-11-22T02:48:10;99869.34;;;18.46;62.36
54236;BME280;40151;43.606;1.472;2023-11-22T02:50:35;99864.91;;;18.46;62.13
54236;BME280;40151;43.606;1.472;2023-11-22T02:53:03;99873.06;;;18.42;62.32
54236;BME280;40151;43.606;1.472;2023-11-22T02:55:29;99874.84;;;18.41;62.49
54236;BME280;40151;43.606;1.472;2023-11-22T02:57:54;99871.28;;;18.42;62.46
54236;BME280;40151;43.606;1.472;2023-11-22T03:00:19;99880.75;;;18.46;62.09
54236;BME280;40151;43.606;1.472;2023-11-22T03:02:45;99870.28;;;18.45;62.36
54236;BME280;40151;43.606;1.472;2023-11-22T03:05:12;99876.69;;;18.39;62.47
54236;BME280;40151;43.606;1.472;2023-11-22T03:07:39;99874.84;;;18.41;62.60
54236;BME280;40151;43.606;1.472;2023-11-22T03:10:06;99881.03;;;18.40;62.64
54236;BME280;40151;43.606;1.472;2023-11-22T03:12:33;99881.03;;;18.40;62.57
54236;BME280;40151;43.606;1.472;2023-11-22T03:14:58;99875.75;;;18.40;62.41
54236;BME280;40151;43.606;1.472;2023-11-22T03:17:27;99873.19;;;18.38;62.50
54236;BME280;40151;43.606;1.472;2023-11-22T03:19:54;99880.25;;;18.38;62.63
54236;BME280;40151;43.606;1.472;2023-11-22T03:22:21;99877.63;;;18.38;62.52
54236;BME280;40151;43.606;1.472;2023-11-22T03:24:46;99868.91;;;18.36;62.32
54236;BME280;40151;43.606;1.472;2023-11-22T03:27:12;99876.69;;;18.39;62.22
54236;BME280;40151;43.606;1.472;2023-11-22T03:29:38;99881.97;;;18.39;62.56
54236;BME280;40151;43.606;1.472;2023-11-22T03:32:03;99879.47;;;18.36;62.43
54236;BME280;40151;43.606;1.472;2023-11-22T03:34:29;99879.53;;;18.34;62.46
54236;BME280;40151;43.606;1.472;2023-11-22T03:36:54;99870.63;;;18.37;62.32
54236;BME280;40151;43.606;1.472;2023-11-22T03:39:20;99874.31;;;18.33;62.20
54236;BME280;40151;43.606;1.472;2023-11-22T03:41:45;99868.91;;;18.36;62.09
54236;BME280;40151;43.606;1.472;2023-11-22T03:44:11;99858.34;;;18.36;62.26
54236;BME280;40151;43.606;1.472;2023-11-22T03:46:37;99858.59;;;18.30;62.27
54236;BME280;40151;43.606;1.472;2023-11-22T03:49:05;99855.81;;;18.33;62.06
54236;BME280;40151;43.606;1.472;2023-11-22T03:51:34;99866.38;;;18.33;62.28
54236;BME280;40151;43.606;1.472;2023-11-22T03:54:01;99862.91;;;18.32;62.31
54236;BME280;40151;43.606;1.472;2023-11-22T03:56:28;99873.47;;;18.32;62.41
54236;BME280;40151;43.606;1.472;2023-11-22T03:58:53;99869.91;;;18.33;62.29
54236;BME280;40151;43.606;1.472;2023-11-22T04:01:19;99872.59;;;18.32;62.39
54236;BME280;40151;43.606;1.472;2023-11-22T04:03:48;99875.25;;;18.32;62.40
54236;BME280;40151;43.606;1.472;2023-11-22T04:06:17;99869.03;;;18.33;62.73
54236;BME280;40151;43.606;1.472;2023-11-22T04:08:43;99869.91;;;18.33;62.24
54236;BME280;40151;43.606;1.472;2023-11-22T04:11:09;99868.19;;;18.32;62.53
54236;BME280;40151;43.606;1.472;2023-11-22T04:13:50;99869.19;;;18.30;62.28
54236;BME280;40151;43.606;1.472;2023-11-22T04:16:15;99875.25;;;18.32;62.46
54236;BME280;40151;43.606;1.472;2023-11-22T04:18:42;99869.19;;;18.30;62.30
54236;BME280;40151;43.606;1.472;2023-11-22T04:21:08;99877.88;;;18.32;62.26
54236;BME280;40151;43.606;1.472;2023-11-22T04:23:34;99879.59;;;18.33;62.40
54236;BME280;40151;43.606;1.472;2023-11-22T04:26:00;99884.88;;;18.33;62.55
54236;BME280;40151;43.606;1.472;2023-11-22T04:28:27;99879.75;;;18.30;62.42
54236;BME280;40151;43.606;1.472;2023-11-22T04:30:53;99891.03;;;18.33;62.14
54236;BME280;40151;43.606;1.472;2023-11-22T04:33:19;99896.38;;;18.32;62.71
54236;BME280;40151;43.606;1.472;2023-11-22T04:35:44;99899.94;;;18.31;62.53
54236;BME280;40151;43.606;1.472;2023-11-22T04:38:10;99909.59;;;18.32;62.40
54236;BME280;40151;43.606;1.472;2023-11-22T04:40:35;99903.44;;;18.31;62.47
54236;BME280;40151;43.606;1.472;2023-11-22T04:43:00;99903.56;;;18.28;62.52
54236;BME280;40151;43.606;1.472;2023-11-22T04:45:27;99902.69;;;18.28;62.30
54236;BME280;40151;43.606;1.472;2023-11-22T04:47:52;99904.41;;;18.29;62.63
54236;BME280;40151;43.606;1.472;2023-11-22T04:50:18;99901.78;;;18.29;62.46
54236;BME280;40151;43.606;1.472;2023-11-22T04:52:43;99909.69;;;18.29;62.43
54236;BME280;40151;43.606;1.472;2023-11-22T04:55:09;99908.00;;;18.28;62.49
54236;BME280;40151;43.606;1.472;2023-11-22T04:57:34;99905.34;;;18.28;62.72
54236;BME280;40151;43.606;1.472;2023-11-22T05:00:00;99922.84;;;18.30;62.49
54236;BME280;40151;43.606;1.472;2023-11-22T05:02:30;99925.53;;;18.29;62.16
54236;BME280;40151;43.606;1.472;2023-11-22T05:04:55;99926.41;;;18.29;62.29
54236;BME280;40151;43.606;1.472;2023-11-22T05:07:22;99926.41;;;18.29;62.39
54236;BME280;40151;43.606;1.472;2023-11-22T05:09:47;99927.28;;;18.30;62.52
54236;BME280;40151;43.606;1.472;2023-11-22T05:12:13;99934.41;;;18.28;62.68
54236;BME280;40151;43.606;1.472;2023-11-22T05:14:39;99937.91;;;18.28;62.38
54236;BME280;40151;43.606;1.472;2023-11-22T05:17:05;99944.97;;;18.28;62.43
54236;BME280;40151;43.606;1.472;2023-11-22T05:19:30;99936.13;;;18.29;62.43
54236;BME280;40151;43.606;1.472;2023-11-22T05:21:57;99939.69;;;18.28;62.51
54236;BME280;40151;43.606;1.472;2023-11-22T05:24:23;99948.53;;;18.27;62.33
54236;BME280;40151;43.606;1.472;2023-11-22T05:26:48;99951.97;;;18.29;62.46
54236;BME280;40151;43.606;1.472;2023-11-22T05:29:13;99952.97;;;18.26;62.39
54236;BME280;40151;43.606;1.472;2023-11-22T05:31:39;99963.56;;;18.26;62.40
54236;BME280;40151;43.606;1.472;2023-11-22T05:34:04;99967.97;;;18.25;62.45
54236;BME280;40151;43.606;1.472;2023-11-22T05:36:30;99969.81;;;18.23;62.57
54236;BME280;40151;43.606;1.472;2023-11-22T05:38:55;99976.81;;;18.24;62.71
54236;BME280;40151;43.606;1.472;2023-11-22T05:41:24;99975.88;;;18.25;62.25
54236;BME280;40151;43.606;1.472;2023-11-22T05:43:51;99969.69;;;18.27;62.27
54236;BME280;40151;43.606;1.472;2023-11-22T05:46:18;99975.88;;;18.25;62.29
54236;BME280;40151;43.606;1.472;2023-11-22T05:48:53;99978.38;;;18.29;62.32
54236;BME280;40151;43.606;1.472;2023-11-22T05:51:19;99983.75;;;18.27;62.20
54236;BME280;40151;43.606;1.472;2023-11-22T05:53:45;99984.59;;;18.28;62.18
54236;BME280;40151;43.606;1.472;2023-11-22T05:56:10;99985.53;;;18.27;62.19
54236;BME280;40151;43.606;1.472;2023-11-22T05:58:36;99985.53;;;18.27;62.32
54236;BME280;40151;43.606;1.472;2023-11-22T06:01:05;99991.72;;;18.25;62.27
54236;BME280;40151;43.606;1.472;2023-11-22T06:03:31;99994.31;;;18.27;62.61
54236;BME280;40151;43.606;1.472;2023-11-22T06:05:57;99990.81;;;18.27;62.23
54236;BME280;40151;43.606;1.472;2023-11-22T06:08:23;99997.75;;;18.29;62.39
54236;BME280;40151;43.606;1.472;2023-11-22T06:10:48;100010.03;;;18.30;62.40
54236;BME280;40151;43.606;1.472;2023-11-22T06:13:14;100010.91;;;18.31;62.30
54236;BME280;40151;43.606;1.472;2023-11-22T06:15:40;100008.25;;;18.31;62.14
54236;BME280;40151;43.606;1.472;2023-11-22T06:18:05;100009.88;;;18.35;63.70
54236;BME280;40151;43.606;1.472;2023-11-22T06:20:30;100010.19;;;18.48;63.67
54236;BME280;40151;43.606;1.472;2023-11-22T06:22:56;100014.22;;;18.57;64.05
54236;BME280;40151;43.606;1.472;2023-11-22T06:25:21;100010.50;;;18.62;64.05
54236;BME280;40151;43.606;1.472;2023-11-22T06:27:47;100009.41;;;18.67;63.79
54236;BME280;40151;43.606;1.472;2023-11-22T06:30:12;100018.94;;;18.71;63.32
54236;BME280;40151;43.606;1.472;2023-11-22T06:32:39;100017.91;;;18.75;62.82
54236;BME280;40151;43.606;1.472;2023-11-22T06:35:07;100016.91;;;18.77;62.73
54236;BME280;40151;43.606;1.472;2023-11-22T06:37:33;100016.75;;;18.81;62.58
54236;BME280;40151;43.606;1.472;2023-11-22T06:39:59;100021.94;;;18.84;62.20
54236;BME280;40151;43.606;1.472;2023-11-22T06:42:25;100021.88;;;18.85;62.29
54236;BME280;40151;43.606;1.472;2023-11-22T06:44:52;100029.66;;;18.88;61.99
54236;BME280;40151;43.606;1.472;2023-11-22T06:47:18;100026.94;;;18.90;61.55
54236;BME280;40151;43.606;1.472;2023-11-22T06:49:44;100034.88;;;18.90;61.39
54236;BME280;40151;43.606;1.472;2023-11-22T06:52:09;100039.19;;;18.92;61.25
54236;BME280;40151;43.606;1.472;2023-11-22T06:54:35;100032.97;;;18.94;61.19
54236;BME280;40151;43.606;1.472;2023-11-22T06:57:04;100043.38;;;18.97;61.09
54236;BME280;40151;43.606;1.472;2023-11-22T06:59:29;100032.75;;;18.98;61.28
54236;BME280;40151;43.606;1.472;2023-11-22T07:01:55;100032.69;;;19.00;61.13
54236;BME280;40151;43.606;1.472;2023-11-22T07:04:21;100042.28;;;19.02;61.13
54236;BME280;40151;43.606;1.472;2023-11-22T07:06:48;100041.50;;;19.00;61.13
54236;BME280;40151;43.606;1.472;2023-11-22T07:09:14;100056.31;;;19.04;60.83
54236;BME280;40151;43.606;1.472;2023-11-22T07:11:40;100063.41;;;19.04;61.16
54236;BME280;40151;43.606;1.472;2023-11-22T07:14:05;100058.91;;;19.06;61.15
54236;BME280;40151;43.606;1.472;2023-11-22T07:16:34;100068.50;;;19.09;60.89
54236;BME280;40151;43.606;1.472;2023-11-22T07:19:00;100081.72;;;19.09;60.95
54236;BME280;40151;43.606;1.472;2023-11-22T07:21:28;100078.16;;;19.10;60.92
54236;BME280;40151;43.606;1.472;2023-11-22T07:23:55;100093.09;;;19.11;60.76
54236;BME280;40151;43.606;1.472;2023-11-22T07:26:20;100099.19;;;19.13;60.70
54236;BME280;40151;43.606;1.472;2023-11-22T07:28:46;100091.25;;;19.13;60.18
54236;BME280;40151;43.606;1.472;2023-11-22T07:31:11;100095.66;;;19.12;60.55
54236;BME280;40151;43.606;1.472;2023-11-22T07:33:37;100105.31;;;19.13;60.57
54236;BME280;40151;43.606;1.472;2023-11-22T07:36:04;100110.56;;;19.15;60.38
54236;BME280;40151;43.606;1.472;2023-11-22T07:38:29;100120.25;;;19.14;60.88
54236;BME280;40151;43.606;1.472;2023-11-22T07:40:56;100109.56;;;19.17;60.60
54236;BME280;40151;43.606;1.472;2023-11-22T07:43:22;100121.91;;;19.17;60.31
54236;BME280;40151;43.606;1.472;2023-11-22T07:45:47;100124.44;;;19.20;60.51
54236;BME280;40151;43.606;1.472;2023-11-22T07:48:13;100127.03;;;19.22;60.48
54236;BME280;40151;43.606;1.472;2023-11-22T07:50:39;100120.75;;;19.24;60.34
54236;BME280;40151;43.606;1.472;2023-11-22T07:53:04;100126.94;;;19.23;60.46
54236;BME280;40151;43.606;1.472;2023-11-22T07:55:30;100126.09;;;19.23;60.33
54236;BME280;40151;43.606;1.472;2023-11-22T07:57:56;100125.16;;;19.24;60.07
54236;BME280;40151;43.606;1.472;2023-11-22T08:00:22;100126.94;;;19.23;60.39
54236;BME280;40151;43.606;1.472;2023-11-22T08:02:48;100127.75;;;19.25;59.99
54236;BME280;40151;43.606;1.472;2023-11-22T08:05:16;100122.47;;;19.25;60.08
54236;BME280;40151;43.606;1.472;2023-11-22T08:07:42;100126.81;;;19.26;60.01
54236;BME280;40151;43.606;1.472;2023-11-22T08:10:10;100135.53;;;19.28;60.07
54236;BME280;40151;43.606;1.472;2023-11-22T08:12:48;100136.47;;;19.27;59.82
54236;BME280;40151;43.606;1.472;2023-11-22T08:15:15;100115.97;;;19.32;60.06
54236;BME280;40151;43.606;1.472;2023-11-22T08:17:43;100115.03;;;19.34;59.69
54236;BME280;40151;43.606;1.472;2023-11-22T08:20:08;100111.47;;;19.35;59.84
54236;BME280;40151;43.606;1.472;2023-11-22T08:22:39;100116.75;;;19.35;59.75
54236;BME280;40151;43.606;1.472;2023-11-22T08:25:06;100111.34;;;19.38;59.73
54236;BME280;40151;43.606;1.472;2023-11-22T08:27:33;100114.94;;;19.37;59.80
54236;BME280;40151;43.606;1.472;2023-11-22T08:29:59;100109.56;;;19.38;59.52
54236;BME280;40151;43.606;1.472;2023-11-22T08:32:26;100112.22;;;19.38;59.54
54236;BME280;40151;43.606;1.472;2023-11-22T08:34:56;100115.66;;;19.40;59.45
54236;BME280;40151;43.606;1.472;2023-11-22T08:37:21;100108.50;;;19.42;59.64
54236;BME280;40151;43.606;1.472;2023-11-22T08:39:47;100105.78;;;19.44;59.70
54236;BME280;40151;43.606;1.472;2023-11-22T08:42:12;100111.06;;;19.44;59.47
54236;BME280;40151;43.606;1.472;2023-11-22T08:44:39;100116.31;;;19.45;59.62
54236;BME280;40151;43.606;1.472;2023-11-22T08:47:04;100121.53;;;19.47;59.34
54236;BME280;40151;43.606;1.472;2023-11-22T08:49:30;100110.09;;;19.47;59.36
54236;BME280;40151;43.606;1.472;2023-11-22T08:51:58;100111.78;;;19.48;59.58
54236;BME280;40151;43.606;1.472;2023-11-22T08:54:25;100117.09;;;19.48;59.39
54236;BME280;40151;43.606;1.472;2023-11-22T08:56:54;100110.81;;;19.50;59.54
54236;BME280;40151;43.606;1.472;2023-11-22T08:59:21;100103.78;;;19.49;59.37
54236;BME280;40151;43.606;1.472;2023-11-22T09:01:47;100103.78;;;19.49;59.10
54236;BME280;40151;43.606;1.472;2023-11-22T09:04:12;100109.94;;;19.50;59.42
54236;BME280;40151;43.606;1.472;2023-11-22T09:06:39;100108.16;;;19.50;58.91
54236;BME280;40151;43.606;1.472;2023-11-22T09:09:04;100112.50;;;19.51;58.85
54236;BME280;40151;43.606;1.472;2023-11-22T09:11:30;100111.59;;;19.52;58.74
54236;BME280;40151;43.606;1.472;2023-11-22T09:13:56;100108.03;;;19.53;59.05
54236;BME280;40151;43.606;1.472;2023-11-22T09:16:22;100107.09;;;19.54;59.06
54236;BME280;40151;43.606;1.472;2023-11-22T09:18:50;100107.09;;;19.54;59.20
54236;BME280;40151;43.606;1.472;2023-11-22T09:21:16;100100.88;;;19.55;58.83
54236;BME280;40151;43.606;1.472;2023-11-22T09:23:42;100094.63;;;19.56;59.09
54236;BME280;40151;43.606;1.472;2023-11-22T09:26:08;100098.06;;;19.58;59.11
54236;BME280;40151;43.606;1.472;2023-11-22T09:28:34;100091.06;;;19.57;59.28
54236;BME280;40151;43.606;1.472;2023-11-22T09:30:59;100092.78;;;19.58;59.18
54236;BME280;40151;43.606;1.472;2023-11-22T09:33:31;100110.41;;;19.59;59.01
54236;BME280;40151;43.606;1.472;2023-11-22T09:35:57;100099.72;;;19.61;58.69
54236;BME280;40151;43.606;1.472;2023-11-22T09:38:23;100106.81;;;19.61;58.77
54236;BME280;40151;43.606;1.472;2023-11-22T09:40:49;100120.06;;;19.61;59.07
54236;BME280;40151;43.606;1.472;2023-11-22T09:43:16;100117.41;;;19.61;59.07
54236;BME280;40151;43.606;1.472;2023-11-22T09:45:48;100127.13;;;19.60;59.00
54236;BME280;40151;43.606;1.472;2023-11-22T09:48:17;100132.47;;;19.58;58.97
54236;BME280;40151;43.606;1.472;2023-11-22T09:51:04;100129.94;;;19.57;58.75
54236;BME280;40151;43.606;1.472;2023-11-22T09:53:34;100134.34;;;19.56;58.76
54236;BME280;40151;43.606;1.472;2023-11-22T09:56:02;100136.22;;;19.54;58.44
54236;BME280;40151;43.606;1.472;2023-11-22T09:58:32;100145.88;;;19.55;58.58
54236;BME280;40151;43.606;1.472;2023-11-22T10:01:02;100148.56;;;19.54;58.42
54236;BME280;40151;43.606;1.472;2023-11-22T10:03:29;100151.28;;;19.52;58.26
54236;BME280;40151;43.606;1.472;2023-11-22T10:05:59;100158.44;;;19.50;58.37
54236;BME280;40151;43.606;1.472;2023-11-22T10:08:28;100165.59;;;19.48;58.24
54236;BME280;40151;43.606;1.472;2023-11-22T10:10:55;100162.16;;;19.46;58.40
54236;BME280;40151;43.606;1.472;2023-11-22T10:13:21;100165.59;;;19.48;58.58
54236;BME280;40151;43.606;1.472;2023-11-22T10:15:48;100163.88;;;19.47;58.14
54236;BME280;40151;43.606;1.472;2023-11-22T10:18:13;100165.72;;;19.45;58.29
54236;BME280;40151;43.606;1.472;2023-11-22T10:20:40;100168.31;;;19.47;58.38
54236;BME280;40151;43.606;1.472;2023-11-22T10:23:09;100165.88;;;19.42;58.02
54236;BME280;40151;43.606;1.472;2023-11-22T10:28:11;100170.34;;;19.40;58.27
54236;BME280;40151;43.606;1.472;2023-11-22T10:30:37;100167.69;;;19.40;58.32
54236;BME280;40151;43.606;1.472;2023-11-22T10:33:03;100173.16;;;19.37;58.10
54236;BME280;40151;43.606;1.472;2023-11-22T10:35:29;100165.25;;;19.35;58.55
54236;BME280;40151;43.606;1.472;2023-11-22T10:37:54;100165.25;;;19.35;58.56
54236;BME280;40151;43.606;1.472;2023-11-22T10:40:20;100167.97;;;19.34;58.40
54236;BME280;40151;43.606;1.472;2023-11-22T10:42:47;100173.25;;;19.34;57.90
54236;BME280;40151;43.606;1.472;2023-11-22T10:45:15;100166.25;;;19.32;57.98
54236;BME280;40151;43.606;1.472;2023-11-22T10:47:43;100173.47;;;19.29;58.00
54236;BME280;40151;43.606;1.472;2023-11-22T10:50:09;100174.19;;;19.32;58.00
54236;BME280;40151;43.606;1.472;2023-11-22T10:52:36;100167.44;;;19.25;58.18
54236;BME280;40151;43.606;1.472;2023-11-22T10:55:03;100158.63;;;19.25;58.06
54236;BME280;40151;43.606;1.472;2023-11-22T10:57:44;100163.00;;;19.26;58.02
54236;BME280;40151;43.606;1.472;2023-11-22T11:00:11;100160.34;;;19.26;58.37
54236;BME280;40151;43.606;1.472;2023-11-22T11:02:44;100167.44;;;19.25;58.32
54236;BME280;40151;43.606;1.472;2023-11-22T11:05:33;100156.81;;;19.27;58.31
54236;BME280;40151;43.606;1.472;2023-11-22T11:08:06;100142.75;;;19.25;58.25
54236;BME280;40151;43.606;1.472;2023-11-22T11:10:39;100133.06;;;19.25;58.42
54236;BME280;40151;43.606;1.472;2023-11-22T11:13:06;100129.59;;;19.23;58.52
54236;BME280;40151;43.606;1.472;2023-11-22T11:15:32;100124.31;;;19.23;58.04
54236;BME280;40151;43.606;1.472;2023-11-22T11:17:58;100125.22;;;19.22;58.28
54236;BME280;40151;43.606;1.472;2023-11-22T11:20:23;100131.47;;;19.21;58.17
54236;BME280;40151;43.606;1.472;2023-11-22T11:22:49;100128.03;;;19.19;58.27
54236;BME280;40151;43.606;1.472;2023-11-22T11:25:18;100129.75;;;19.20;58.09
54236;BME280;40151;43.606;1.472;2023-11-22T11:27:56;100128.97;;;19.18;58.18
54236;BME280;40151;43.606;1.472;2023-11-22T11:33:06;100122.00;;;19.15;58.11
54236;BME280;40151;43.606;1.472;2023-11-22T11:35:41;100130.00;;;19.14;57.66
54236;BME280;40151;43.606;1.472;2023-11-22T11:38:07;100128.28;;;19.13;57.65
54236;BME280;40151;43.606;1.472;2023-11-22T11:40:35;100137.16;;;19.12;57.63
54236;BME280;40151;43.606;1.472;2023-11-22T11:43:00;100117.03;;;19.08;57.76
54236;BME280;40151;43.606;1.472;2023-11-22T11:45:27;100124.03;;;19.09;57.77
54236;BME280;40151;43.606;1.472;2023-11-22T11:47:53;100118.69;;;19.10;58.00
54236;BME280;40151;43.606;1.472;2023-11-22T11:50:21;100134.31;;;19.16;57.95
54236;BME280;40151;43.606;1.472;2023-11-22T11:52:47;100131.59;;;19.18;57.90
54236;BME280;40151;43.606;1.472;2023-11-22T11:55:13;100137.72;;;19.18;57.34
54236;BME280;40151;43.606;1.472;2023-11-22T11:57:38;100141.31;;;19.17;57.88
54236;BME280;40151;43.606;1.472;2023-11-22T12:00:07;100131.47;;;19.21;57.51
54236;BME280;40151;43.606;1.472;2023-11-22T12:02:34;100143.75;;;19.22;57.56
54236;BME280;40151;43.606;1.472;2023-11-22T12:05:00;100142.91;;;19.22;57.81
54236;BME280;40151;43.606;1.472;2023-11-22T12:07:26;100133.09;;;19.24;57.81
54236;BME280;40151;43.606;1.472;2023-11-22T12:09:51;100141.91;;;19.24;58.02
54236;BME280;40151;43.606;1.472;2023-11-22T12:12:17;100144.47;;;19.26;57.73
54236;BME280;40151;43.606;1.472;2023-11-22T12:14:42;100146.34;;;19.24;57.98
54236;BME280;40151;43.606;1.472;2023-11-22T12:17:09;100144.47;;;19.26;58.05
54236;BME280;40151;43.606;1.472;2023-11-22T12:19:35;100155.22;;;19.23;57.86
54236;BME280;40151;43.606;1.472;2023-11-22T12:22:00;100150.75;;;19.23;57.90
54236;BME280;40151;43.606;1.472;2023-11-22T12:24:26;100140.19;;;19.23;57.89
54236;BME280;40151;43.606;1.472;2023-11-22T12:26:51;100128.88;;;19.19;57.76
54236;BME280;40151;43.606;1.472;2023-11-22T12:29:17;100136.69;;;19.23;58.00
54236;BME280;40151;43.606;1.472;2023-11-22T12:31:48;100129.75;;;19.20;57.93
54236;BME280;40151;43.606;1.472;2023-11-22T12:34:16;100127.97;;;19.21;57.89
54236;BME280;40151;43.606;1.472;2023-11-22T12:36:42;100136.06;;;19.16;57.96
54236;BME280;40151;43.606;1.472;2023-11-22T12:39:11;100122.72;;;19.19;57.99
54236;BME280;40151;43.606;1.472;2023-11-22T12:41:43;100115.78;;;19.16;58.01
54236;BME280;40151;43.606;1.472;2023-11-22T12:44:10;100108.69;;;19.17;58.21
54236;BME280;40151;43.606;1.472;2023-11-22T12:49:12;100093.75;;;19.16;58.04
54236;BME280;40151;43.606;1.472;2023-11-22T12:51:37;100090.16;;;19.17;58.14
54236;BME280;40151;43.606;1.472;2023-11-22T12:54:03;100096.28;;;19.19;58.24
54236;BME280;40151;43.606;1.472;2023-11-22T12:56:28;100088.53;;;19.14;57.92
54236;BME280;40151;43.606;1.472;2023-11-22T12:58:54;100071.75;;;19.15;57.92